ADDS METAR Data INFO
IDs: Format: Raw Decoded Include TAF

Data at: 0314 UTC 22 Apr 2018

KUVA 220255Z AUTO 00000KT 10SM CLR 20/15 A2994 RMK AO2 T02040150
KUVA 220235Z AUTO 29003KT 7SM CLR 21/15 A2993 RMK AO2 T02090151
KUVA 220215Z AUTO 00000KT 10SM CLR 21/15 A2991 RMK AO2 T02120153
KUVA 220155Z AUTO 00000KT 10SM CLR 22/15 A2990 RMK AO2 T02150153
KUVA 220135Z AUTO 11003KT 10SM CLR 22/15 A2989 RMK AO2 T02200154
KUVA 220115Z AUTO 13004KT 10SM CLR 23/16 A2988 RMK AO2 T02310155
KUVA 220055Z AUTO 12004KT 10SM CLR 25/15 A2988 RMK AO2 T02490152
KUVA 220035Z AUTO 11007KT 10SM CLR 26/15 A2987 RMK AO2 T02610146
KUVA 220015Z AUTO 11006KT 10SM CLR 27/14 A2987 RMK AO2 T02680143
KUVA 212355Z AUTO 11005KT 10SM CLR 28/14 A2987 RMK AO2 T02750143 10282 20217
KUVA 212335Z AUTO 09005KT 10SM CLR 28/14 A2987 RMK AO2 T02790144
KUVA 212310Z AUTO 07003KT 10SM CLR 28/13 A2987 RMK AO2 T02800132
KUVA 212255Z AUTO 08004KT 10SM CLR 28/13 A2988 RMK AO2 T02770133
KUVA 212235Z AUTO 00000KT 10SM CLR 28/14 A2988 RMK AO2 T02780137
KUVA 212215Z AUTO 00000KT 10SM CLR 27/14 A2988 RMK AO2 T02730136
KUVA 212155Z AUTO 00000KT 10SM CLR 28/14 A2988 RMK AO2 T02760143
KUVA 212135Z AUTO 00000KT 10SM CLR 27/15 A2989 RMK AO2 T02670146
KUVA 212115Z AUTO 00000KT 10SM CLR 27/15 A2990 RMK AO2 T02670149
KUVA 212055Z AUTO 29003KT 10SM SCT037 26/15 A2991 RMK AO2 T02630152
KUVA 212035Z AUTO 05004KT 10SM SCT035 26/17 A2992 RMK AO2 T02620166
KUVA 212015Z AUTO 00000KT 10SM SCT029 BKN035 25/17 A2992 RMK AO2 T02520167
KUVA 211955Z AUTO 09003KT 10SM BKN027 25/17 A2992 RMK AO2 T02470173
KUVA 211935Z AUTO 29003KT 10SM SCT040 25/18 A2993 RMK AO2 T02480178
KUVA 211915Z AUTO 00000KT 10SM SCT021 BKN040 23/18 A2994 RMK AO2 T02320178
KUVA 211855Z AUTO 00000KT 10SM BKN021 BKN030 OVC038 23/18 A2995 RMK AO2 T02250180
KUVA 211835Z AUTO 00000KT 10SM BKN020 OVC026 22/18 A2996 RMK AO2 T02240178
KUVA 211815Z AUTO 00000KT 10SM BKN017 OVC024 22/18 A2997 RMK AO2 T02180178
KUVA 211755Z AUTO 20003KT 10SM OVC015 22/18 A2997 RMK AO2 60002 T02190184 10219 20170
KUVA 211735Z AUTO 00000KT 10SM OVC013 21/18 A2998 RMK AO2 T02070183
KUVA 211715Z AUTO 00000KT 10SM SCT005 BKN012 OVC045 20/19 A2998 RMK AO2 T02030185
KUVA 211655Z AUTO 00000KT 4SM BR SCT005 BKN012 BKN018 19/19 A2999 RMK AO2 P0001 T01940185
KUVA 211635Z AUTO 00000KT 3SM BR 19/18 A2999 RMK AO2 SKY OBSCURED P0001 T01860181
KUVA 211615Z AUTO 00000KT 1 3/4SM BR VV007 19/18 A2999 RMK AO2 P0001 T01860181
KUVA 211555Z AUTO 00000KT 1 1/4SM +DZ BKN007 18/18 A2999 RMK AO2 P0001 T01830178
KUVA 211535Z AUTO 00000KT 2SM +RA OVC007 18/17 A2999 RMK AO2 T01830174
KUVA 211515Z AUTO 00000KT 5SM BR OVC007 19/17 A2999 RMK AO2 T01850171
KUVA 211455Z AUTO 08003KT 10SM OVC007 18/17 A2999 RMK AO2 T01820170
KUVA 211435Z AUTO 11005KT 10SM OVC009 18/17 A2998 RMK AO2 LTG DSNT NW T01810170
KUVA 211415Z AUTO 10004KT 10SM BKN009 OVC017 18/17 A2998 RMK AO2 LTG DSNT NW T01800169
KUVA 211355Z AUTO 10006KT 7SM OVC017 18/17 A2996 RMK AO2 T01760167
KUVA 211335Z AUTO 08006KT 7SM OVC015 18/17 A2996 RMK AO2 T01750166
KUVA 211315Z AUTO 09003KT 7SM OVC015 17/17 A2996 RMK AO2 T01730165
KUVA 211255Z AUTO 08004KT 7SM SCT008 OVC017 17/17 A2996 RMK AO2 T01720165
KUVA 211235Z AUTO 07004KT 7SM SCT009 OVC017 17/17 A2996 RMK AO2 T01710165
KUVA 211215Z AUTO 07005KT 7SM SCT009 BKN014 OVC020 17/17 A2995 RMK AO2 T01700165
KUVA 211155Z AUTO 05004KT 7SM SCT009 BKN016 OVC029 17/17 A2995 RMK AO2 7//// T01700165 10177 20170
KUVA 211135Z AUTO 06005KT 5SM -DZ SCT011 BKN029 OVC034 17/17 A2994 RMK AO2 T01700165
KUVA 211115Z AUTO 07006KT 5SM -DZ SCT024 OVC034 17/16 A2994 RMK AO2 T01710163
KUVA 211055Z AUTO 06005KT 7SM BKN024 BKN029 OVC042 17/16 A2994 RMK AO2 T01730161
KUVA 211035Z AUTO 06005KT 10SM SCT022 BKN028 OVC044 18/16 A2995 RMK AO2 T01750160
KUVA 211015Z AUTO 08003KT 10SM SCT018 SCT025 OVC046 18/16 A2995 RMK AO2 T01750160
KUVA 210955Z AUTO 09004KT 10SM OVC048 18/16 A2994 RMK AO2 T01770160
KUVA 210935Z AUTO 10006KT 10SM SCT024 BKN032 OVC048 18/16 A2994 RMK AO2 T01770160
KUVA 210915Z AUTO 11007KT 10SM BKN030 OVC036 18/16 A2994 RMK AO2 T01760160
KUVA 210855Z AUTO 11007KT 10SM SCT028 BKN034 OVC046 18/16 A2995 RMK AO2 T01760158
KUVA 210835Z AUTO 11007KT 10SM SCT021 BKN032 OVC048 18/16 A2994 RMK AO2 T01760157
KUVA 210815Z AUTO 11009KT 10SM SCT014 SCT024 OVC048 18/16 A2995 RMK AO2 T01750156
KUVA 210755Z AUTO 11010KT 10SM SCT014 BKN036 OVC046 18/16 A2994 RMK AO2 T01750155
KUVA 210735Z AUTO 11009KT 10SM SCT012 BKN018 OVC044 18/15 A2995 RMK AO2 T01750154
KUVA 210715Z AUTO 11009G16KT 10SM SCT012 BKN018 OVC044 18/15 A2996 RMK AO2 T01750153
KUVA 210655Z AUTO 11013G19KT 10SM BKN014 OVC020 18/15 A2996 RMK AO2 T01750152
KUVA 210635Z AUTO 11010G14KT 10SM BKN014 OVC021 18/15 A2996 RMK AO2 T01750151
KUVA 210615Z AUTO 11013G19KT 10SM OVC014 18/15 A2996 RMK AO2 T01750150
KUVA 210555Z AUTO 11011G18KT 10SM OVC014 17/15 A2996 RMK AO2 T01730147 10186 20170
KUVA 210535Z AUTO 10011G20KT 10SM OVC014 17/15 A2996 RMK AO2 T01740146
KUVA 210515Z AUTO 11012G18KT 10SM OVC014 18/15 A2997 RMK AO2 T01750146
KUVA 210455Z AUTO 11011G16KT 10SM OVC014 18/15 A2998 RMK AO2 T01770146
KUVA 210435Z AUTO 11012G19KT 10SM OVC016 18/15 A2998 RMK AO2 T01780146
KUVA 210415Z AUTO 10013G19KT 10SM OVC018 18/15 A2998 RMK AO2 T01800145
KUVA 210355Z AUTO 11014G20KT 10SM OVC020 18/15 A2999 RMK AO2 T01810145
KUVA 210335Z AUTO 11015G19KT 10SM OVC022 18/15 A3001 RMK AO2 T01830145
KUVA 210315Z AUTO 10014KT 10SM OVC024 18/15 A3001 RMK AO2 T01830146
KUVA 210255Z AUTO 09008G16KT 10SM BKN026 OVC031 18/14 A3001 RMK AO2 T01800144
KUVA 210235Z AUTO 09012G16KT 10SM BKN030 OVC036 18/14 A3000 RMK AO2 T01780140
KUVA 210215Z AUTO 09012G16KT 10SM SCT036 17/14 A2998 RMK AO2 T01720137
KUVA 210155Z AUTO 08012G17KT 10SM SCT048 17/14 A2998 RMK AO2 T01710135
KUVA 210135Z AUTO 08013KT 10SM SCT042 OVC050 18/14 A2997 RMK AO2 T01770135
KUVA 210115Z AUTO 08011G18KT 10SM OVC050 18/14 A2998 RMK AO2 T01780135
KUVA 210055Z AUTO 08013KT 10SM SCT047 BKN050 18/14 A2999 RMK AO2 T01810135
KUVA 210035Z AUTO 08012G17KT 10SM BKN046 BKN050 19/14 A2998 RMK AO2 T01850135
KUVA 210015Z AUTO 08010G16KT 10SM OVC046 19/14 A2999 RMK AO2 T01860136
KUVA 202355Z AUTO 08012KT 10SM OVC046 19/14 A3000 RMK AO2 T01870135 10199 20172
KUVA 202335Z AUTO 08014G18KT 10SM BKN048 19/13 A2998 RMK AO2 T01870134
KUVA 202315Z AUTO 08015G19KT 10SM BKN048 19/13 A2998 RMK AO2 T01890132
KUVA 202255Z AUTO 09013G16KT 10SM OVC046 19/13 A2999 RMK AO2 LTG DSNT N T01870131
KUVA 202235Z AUTO 09012G16KT 10SM OVC044 19/13 A3001 RMK AO2 T01930132
KUVA 202215Z AUTO 09014G20KT 10SM OVC044 20/13 A3001 RMK AO2 T01960133
KUVA 202155Z AUTO 09013G17KT 10SM OVC044 19/13 A3002 RMK AO2 T01910132
KUVA 202135Z AUTO 09012G17KT 10SM SCT042 19/13 A3003 RMK AO2 T01930130
KUVA 202115Z AUTO 11014KT 10SM BKN042 19/13 A3004 RMK AO2 T01940130
KUVA 202055Z AUTO 09011G16KT 10SM OVC042 19/13 A3005 RMK AO2 T01900130
KUVA 202035Z AUTO 09013G16KT 10SM BKN042 19/13 A3006 RMK AO2 T01890129
KUVA 202015Z AUTO 09013G17KT 7SM BKN042 19/13 A3006 RMK AO2 T01890129
KUVA 201955Z AUTO 09012G18KT 10SM SCT042 18/13 A3008 RMK AO2 T01820127
KUVA 201935Z AUTO 10016G21KT 10SM CLR 18/13 A3007 RMK AO2 T01770125
KUVA 201915Z AUTO 10019KT 10SM CLR 18/12 A3007 RMK AO2 T01750122
KUVA 201855Z AUTO 10011G18KT 10SM CLR 17/12 A3011 RMK AO2 T01710121
KUVA 201835Z AUTO 12015G20KT 10SM CLR 17/12 A3012 RMK AO2 T01680118
KUVA 201815Z AUTO 09015G20KT 10SM SCT024 SCT035 SCT049 17/12 A3012 RMK AO2 T01670116
KUVA 201755Z AUTO 10010G16KT 10SM SCT024 BKN037 OVC049 17/12 A3016 RMK AO2 T01670115 10172 20130
KUVA 201735Z AUTO 10014KT 10SM SCT024 OVC037 17/12 A3017 RMK AO2 T01660115
KUVA 201715Z AUTO 09014G17KT 10SM BKN037 17/12 A3016 RMK AO2 T01700116
KUVA 201655Z AUTO 08014KT 10SM BKN039 16/11 A3017 RMK AO2 T01630110
KUVA 201635Z AUTO 08010KT 10SM BKN039 15/11 A3018 RMK AO2 T01530110
KUVA 201615Z AUTO 09012G20KT 10SM SCT024 BKN037 14/10 A3016 RMK AO2 T01410101
KUVA 201555Z AUTO 10014G18KT 10SM -RA BKN024 BKN030 OVC037 14/10 A3018 RMK AO2 T01380098
KUVA 201535Z AUTO 09010G19KT 10SM -DZ BKN024 OVC038 14/09 A3017 RMK AO2 T01370091
KUVA 201515Z AUTO 06014KT 10SM -RA SCT024 SCT034 BKN040 14/09 A3017 RMK AO2 T01370087